Terminal Aerodrome Forecast
Issued by NWS

Home | Current Version | Previous Version | Text Only | Print | Product List | Glossary On
Versions: 1 2 3 4 5 6 7 8 9 10 11 12 13 14
783
FTUS42 KTBW 230528
TAFPGD
TAF
KPGD 230528Z 2306/2406 01005KT P6SM SCT015
      TEMPO 2306/2307 BKN015
     FM230800 01004KT 3SM BR SCT005
     FM231400 06011KT P6SM SCT020 SCT100
     FM232000 07011G18KT P6SM VCSH SCT025 OVC050
     FM240200 06009KT P6SM SCT020=

USA.gov is the U.S. government's official web portal to all federal, state and local government web resources and services.